createdAt,value
2019-02-22T00:00:37.371Z,4.10
2019-02-22T00:05:33.195Z,4.10
2019-02-22T00:10:29.015Z,4.20
2019-02-22T00:15:24.877Z,4.10
2019-02-22T00:20:22.476Z,4.20
2019-02-22T00:25:18.373Z,4.20
2019-02-22T00:30:14.352Z,4.20
2019-02-22T00:35:10.130Z,4.30
2019-02-22T00:40:07.345Z,4.30
2019-02-22T00:45:03.190Z,4.40
2019-02-22T00:49:58.991Z,4.40
2019-02-22T00:54:56.770Z,4.30
2019-02-22T00:59:57.199Z,4.30
2019-02-22T01:04:56.210Z,4.30
2019-02-22T01:09:54.398Z,4.30
2019-02-22T01:14:50.260Z,4.40
2019-02-22T01:19:46.088Z,4.50
2019-02-22T01:24:42.085Z,4.60
2019-02-22T01:29:37.879Z,4.50
2019-02-22T01:34:34.808Z,4.50
2019-02-22T01:39:30.917Z,4.50
2019-02-22T01:44:26.836Z,4.50
2019-02-22T01:49:23.752Z,4.50
2019-02-22T01:54:19.597Z,4.40
2019-02-22T01:59:20.100Z,4.50
2019-02-22T02:04:18.218Z,4.50
2019-02-22T02:09:16.777Z,4.50
2019-02-22T02:14:12.623Z,4.50
2019-02-22T02:19:18.795Z,4.50
2019-02-22T02:24:07.907Z,4.50
2019-02-22T02:29:03.720Z,4.60
2019-02-22T02:33:59.551Z,4.50
2019-02-22T02:39:01.079Z,4.60
2019-02-22T02:43:56.889Z,4.60
2019-02-22T02:48:52.814Z,4.60
2019-02-22T02:53:48.629Z,4.60
2019-02-22T02:58:44.526Z,4.60
2019-02-22T03:03:40.357Z,4.50
2019-02-22T03:08:37.012Z,4.50
2019-02-22T03:13:32.830Z,4.60
2019-02-22T03:18:28.680Z,4.50
2019-02-22T03:23:24.648Z,4.50
2019-02-22T03:28:20.532Z,4.50
2019-02-22T03:33:21.617Z,4.50
2019-02-22T03:38:17.476Z,4.50
2019-02-22T03:43:13.369Z,4.50
2019-02-22T03:48:11.141Z,4.50
2019-02-22T03:53:19.927Z,4.60
2019-02-22T03:58:15.747Z,4.60
2019-02-22T04:03:11.554Z,4.60
2019-02-22T04:08:07.487Z,4.60
2019-02-22T04:13:03.338Z,4.60
2019-02-22T04:17:59.118Z,4.60
2019-02-22T04:22:54.978Z,4.60
2019-02-22T04:27:51.856Z,4.70
2019-02-22T04:32:47.719Z,4.60
2019-02-22T04:37:43.606Z,4.60
2019-02-22T04:42:39.430Z,4.60
2019-02-22T04:47:35.222Z,4.70
2019-02-22T04:52:31.006Z,4.70
2019-02-22T04:57:26.833Z,4.70
2019-02-22T05:02:22.968Z,4.70
2019-02-22T05:07:19.005Z,4.70
2019-02-22T05:12:16.071Z,4.70
2019-02-22T05:17:11.868Z,4.80
2019-02-22T05:22:07.755Z,4.80
2019-02-22T05:27:03.554Z,4.80
2019-02-22T05:31:59.501Z,4.80
2019-02-22T05:36:55.348Z,4.80
2019-02-22T05:41:51.378Z,4.90
2019-02-22T05:46:47.252Z,4.90
2019-02-22T05:51:43.071Z,4.90
2019-02-22T05:56:39.256Z,5.00
2019-02-22T06:01:35.161Z,5.00
2019-02-22T06:06:31.047Z,5.10
2019-02-22T06:11:31.351Z,5.10
2019-02-22T06:16:27.281Z,5.10
2019-02-22T06:21:24.694Z,5.10
2019-02-22T06:26:20.615Z,5.10
2019-02-22T06:31:19.021Z,5.10
2019-02-22T06:36:14.965Z,5.10
2019-02-22T06:41:10.973Z,5.10
2019-02-22T06:46:07.787Z,5.20
2019-02-22T06:51:03.694Z,5.30
2019-02-22T06:55:59.916Z,5.30
2019-02-22T07:00:55.830Z,5.30
2019-02-22T07:05:51.836Z,5.40
2019-02-22T07:11:09.570Z,5.40
2019-02-22T07:16:05.603Z,5.50
2019-02-22T07:21:01.540Z,5.50
2019-02-22T07:25:57.396Z,5.50
2019-02-22T07:30:53.266Z,5.60
2019-02-22T07:35:49.221Z,5.70
2019-02-22T07:40:45.102Z,5.80
2019-02-22T07:45:41.027Z,5.80
2019-02-22T07:50:37.152Z,5.90
2019-02-22T07:55:33.175Z,6.00
2019-02-22T08:00:31.215Z,6.10
2019-02-22T08:05:27.156Z,6.20
2019-02-22T08:10:23.021Z,6.20
2019-02-22T08:15:18.928Z,6.20
2019-02-22T08:20:14.855Z,6.40
2019-02-22T08:25:11.332Z,6.50
2019-02-22T08:30:08.781Z,6.70
2019-02-22T08:35:07.499Z,7.00
2019-02-22T08:40:03.699Z,7.30
2019-02-22T08:44:59.603Z,7.50
2019-02-22T08:49:55.608Z,7.40
2019-02-22T08:54:51.620Z,7.10
2019-02-22T08:59:47.420Z,6.90
2019-02-22T09:04:43.253Z,6.90
2019-02-22T09:09:39.882Z,6.80
2019-02-22T09:14:35.821Z,6.60
2019-02-22T09:19:32.011Z,6.50
2019-02-22T09:24:29.645Z,6.30
2019-02-22T09:29:26.912Z,6.20
2019-02-22T09:34:24.096Z,6.20
2019-02-22T09:39:20.834Z,6.20
2019-02-22T09:44:16.678Z,6.30
2019-02-22T09:49:13.496Z,6.40
2019-02-22T09:54:09.630Z,6.60
2019-02-22T09:59:05.505Z,6.70
2019-02-22T10:04:01.735Z,6.90
2019-02-22T10:08:57.759Z,7.00
2019-02-22T10:13:54.059Z,7.10
2019-02-22T10:18:50.293Z,7.30
2019-02-22T10:23:46.313Z,7.40
2019-02-22T10:28:42.234Z,7.60
2019-02-22T10:33:39.299Z,7.80
2019-02-22T10:38:36.064Z,8.00
2019-02-22T10:43:32.303Z,8.30
2019-02-22T10:48:28.133Z,8.60
2019-02-22T10:53:23.941Z,8.90
2019-02-22T10:58:19.771Z,8.90
2019-02-22T11:03:15.561Z,9.10
2019-02-22T11:08:11.456Z,9.20
2019-02-22T11:13:07.481Z,9.30
2019-02-22T11:18:03.346Z,9.20
2019-02-22T11:22:59.324Z,9.20
2019-02-22T11:27:55.362Z,9.40
2019-02-22T11:32:51.307Z,9.20
2019-02-22T11:37:47.308Z,9.20
2019-02-22T11:42:43.200Z,9.20
2019-02-22T11:47:39.153Z,9.40
2019-02-22T11:52:34.979Z,9.40
2019-02-22T11:57:30.829Z,9.40
2019-02-22T12:02:26.688Z,9.50
2019-02-22T12:07:22.646Z,9.60
2019-02-22T12:12:18.706Z,9.70
2019-02-22T12:17:14.579Z,9.60
2019-02-22T12:22:10.529Z,9.60
2019-02-22T12:27:06.430Z,9.80
2019-02-22T12:32:04.523Z,10.20
2019-02-22T12:37:00.553Z,10.40
2019-02-22T12:41:56.372Z,10.50
2019-02-22T12:46:54.227Z,10.40
2019-02-22T12:51:52.566Z,10.30
2019-02-22T12:56:57.803Z,10.30
2019-02-22T13:01:46.078Z,10.10
2019-02-22T13:06:42.243Z,10.00
2019-02-22T13:11:40.434Z,9.90
2019-02-22T13:16:36.304Z,9.90
2019-02-22T13:21:32.277Z,9.80
2019-02-22T13:26:28.151Z,10.00
2019-02-22T13:31:30.205Z,10.10
2019-02-22T13:36:23.821Z,10.10
2019-02-22T13:41:19.683Z,10.10
2019-02-22T13:46:15.709Z,9.80
2019-02-22T13:51:11.739Z,9.40
2019-02-22T13:56:07.610Z,9.10
2019-02-22T14:01:04.728Z,8.90
2019-02-22T14:06:02.782Z,8.80
2019-02-22T14:10:59.328Z,8.80
2019-02-22T14:15:58.739Z,8.80
2019-02-22T14:20:55.834Z,8.80
2019-02-22T14:25:52.057Z,8.80
2019-02-22T14:30:48.080Z,8.80
2019-02-22T14:35:43.930Z,8.70
2019-02-22T14:40:39.941Z,8.70
2019-02-22T14:45:36.444Z,8.70
2019-02-22T14:50:32.509Z,8.80
2019-02-22T14:55:28.414Z,8.90
2019-02-22T15:00:24.521Z,8.90
2019-02-22T15:05:21.469Z,9.00
2019-02-22T15:10:18.573Z,8.90
2019-02-22T15:15:14.965Z,8.90
2019-02-22T15:20:11.016Z,8.90
2019-02-22T15:25:08.822Z,8.90
2019-02-22T15:30:05.080Z,8.90
2019-02-22T15:35:00.950Z,8.90
2019-02-22T15:39:57.977Z,8.80
2019-02-22T15:44:53.840Z,8.80
2019-02-22T15:49:49.920Z,8.80
2019-02-22T15:54:45.911Z,8.70
2019-02-22T15:59:41.816Z,8.60
2019-02-22T16:04:50.079Z,8.60
2019-02-22T16:09:46.192Z,8.50
2019-02-22T16:14:42.276Z,8.40
2019-02-22T16:19:38.938Z,8.40
2019-02-22T16:24:34.827Z,8.40
2019-02-22T16:29:31.651Z,8.40
2019-02-22T16:34:29.650Z,8.30
2019-02-22T16:39:25.457Z,8.20
2019-02-22T16:44:23.153Z,8.10
2019-02-22T16:49:19.295Z,8.00
2019-02-22T16:54:19.717Z,7.80
2019-02-22T16:59:18.973Z,7.70
2019-02-22T17:04:18.779Z,7.60
2019-02-22T17:09:14.396Z,7.50
2019-02-22T17:14:10.455Z,7.50
2019-02-22T17:19:07.148Z,7.50
2019-02-22T17:24:03.354Z,7.50
2019-02-22T17:28:59.432Z,7.50
2019-02-22T17:33:56.097Z,7.40
2019-02-22T17:38:53.155Z,7.40
2019-02-22T17:43:49.997Z,7.40
2019-02-22T17:48:46.611Z,7.40
2019-02-22T17:53:42.653Z,7.30
2019-02-22T17:58:39.098Z,7.20
2019-02-22T18:03:34.978Z,7.10
2019-02-22T18:08:31.100Z,7.00
2019-02-22T18:13:27.149Z,6.80
2019-02-22T18:18:23.504Z,6.40
2019-02-22T18:23:19.436Z,6.30
2019-02-22T18:28:18.348Z,6.20
2019-02-22T18:33:14.204Z,6.20
2019-02-22T18:38:14.995Z,6.00
2019-02-22T18:43:10.967Z,5.90
2019-02-22T18:48:06.796Z,5.90
2019-02-22T18:53:02.710Z,5.90
2019-02-22T18:57:58.587Z,5.90
2019-02-22T19:02:54.544Z,6.00
2019-02-22T19:07:50.424Z,6.00
2019-02-22T19:12:46.402Z,6.00
2019-02-22T19:17:44.800Z,5.90
2019-02-22T20:36:49.028Z,4.70
2019-02-22T20:43:48.129Z,4.70
2019-02-22T21:02:36.029Z,4.70
2019-02-22T21:37:18.044Z,4.40
2019-02-22T21:42:33.033Z,4.40
2019-02-22T21:47:26.560Z,4.40
2019-02-22T21:52:22.422Z,4.40
2019-02-22T21:57:18.367Z,4.30
2019-02-22T22:02:14.356Z,4.00
2019-02-22T22:07:10.401Z,4.10
2019-02-22T22:12:11.256Z,4.20
2019-02-22T22:17:07.485Z,4.10
2019-02-22T22:22:03.347Z,4.10
2019-02-22T22:26:59.268Z,4.10
2019-02-22T22:31:57.171Z,3.90
2019-02-22T22:36:53.157Z,3.50
2019-02-22T22:41:49.346Z,3.50
2019-02-22T22:46:45.396Z,3.60
2019-02-22T22:51:44.939Z,3.60
2019-02-22T22:56:40.842Z,3.60
2019-02-22T23:01:41.025Z,3.60
2019-02-22T23:06:36.812Z,3.50
2019-02-22T23:11:32.793Z,3.50
2019-02-22T23:16:28.616Z,3.10
2019-02-22T23:21:24.703Z,3.00
2019-02-22T23:26:20.979Z,3.00
2019-02-22T23:31:17.063Z,3.00
2019-02-22T23:36:12.980Z,3.10
2019-02-22T23:41:09.253Z,3.10
2019-02-22T23:46:05.240Z,3.10
2019-02-22T23:51:01.087Z,2.80
2019-02-22T23:55:56.905Z,2.80
